今日のアクセス数今日のアクセス数

    岡山グライダークラブ活動状況掲示板あなたは無料カウンター人目の訪問者です

岡山グライダークラブ
岡山市浦安南町639-1 岡南飛行場
 使用機:シャイベ式 SF25C型 ファルケ   JA2330
      ヴァレンティン式17E型 タイフーン  JA2342
 練習日:毎日曜日  クラブルーム:電話 086-265-1810
この掲示板は岡山グライダークラブの活動状況をお知らせする掲示板です。
!!!この掲示板は投稿規制をしています。!!!
クラブ関連各種情報は 岡山グライダークラブクラブルーム      を       .
  ブリーフイング情報は  岡山グライダークラブブリーフィングルーム  をご覧下さい。 .
※写真はクリックすると拡大して見ることが出来ます。
岡南飛行場へのアクセス等は 岡南飛行場管理事務所 をご覧ください。
クラブの ホームページ ができました。

ページ 1 (1〜10)ホームページへ戻る

12月09日
by OGC at 2018/12/9(日) 19:20:04 No.20181209190530 コメント】  削除 引用
1024 x 768 x 62,417バイト
No.1

12月09日
本日の参加者
  会員      14名
  その他      1名


@本日の様子




METAR
RJBK 090100Z 26009KT 30KM FEW025CU BKN/// 06/-03 Q1030 A3044
RKOB 090100Z 24006KT 9999 FEW020 BKN/// 03/M03 Q1029
RJOT 090100Z 27012KT 9999 FEW025 BKN/// 05/M03 Q1029
RJOA 090100Z 30007KT 260V350 9999 FEW025 SCT040 BKN050 03/M06 Q1029
TAF
RJOB 082305Z 0900/1006 29009KT 9999 FEW020 SCT040
         BECMG 0915/0918 35004KT
RJOT 082305Z 0900/1006 28010KT 9999 FEW025 SCT045
         BECMG 1000/1003 01004KT
RJOA 082306Z 0900/1006 30009KT 9999 FEW020 BKN045
         BECMG 0921/1000 05006KT

本日の天候は午前中、そこそこ風もありリフトもあったようですが、午後には風も穏やかになっていました。
一方、訓練フライトはNAV訓練の人気が高く、与島や高松タワー管制圏内、小豆島へNAV訓練に出ていました。
それから、本日は見学者があり、クラブ活動の様子を見学されました。



解散    17:00

1番機  11:15離陸 撤収機  16:35着陸 

SF25C JA2330 ファルケ     07Flt.3h10min  
17E   JA2342 タイフーン    05Flt.2h40min  
合計                    12Flt.5h50min

 IBM¨データ復旧    データ復旧×DELL

12月02日
by OGC at 2018/12/2(日) 19:24:46 No.20181202191714 コメント】  削除 引用
1024 x 768 x 80,247バイト
No.1

12月02日
本日の参加者
  会員      11名
  その他      0名


@本日の様子




METAR
RJBK 020000Z 01003KT 340V080 20KM FEW020CU 09/06 Q1028 A3037
RKOB 020000Z 06007KT CAVOK 09/05 Q1027
RJOT 020000Z 09003KT 030V140 9999 FEW025 11/08 Q1027
RJOA 020000Z 07007KT 040V110 9999 FEW015 10/06 Q1027
TAF
RJOB 012307Z 0200/0306 10007KT 9999 FEW025
        BECMG 0215/0218 4000 -SHRA BR FEW002 BKN008 BKN015
        TEMPO 0218/0300 1500 -SHRA BR BCFG FEW000 BKN005 BKN008
RJOT 012307Z 0200/0306 06007KT 9999 FEW020 SCT050
RJOA 012305Z 0200/0306 12005KT 9999 FEW020 SCT045
        BECMG 0212/0215 3000 -SHRA BR BCFG FEW000 BKN008 BKN015
        TEMPO 0221/0303 1500 -SHRA BR BCFG FEW000 BKN005 BKN008

本日の天候は風も穏やかで訓練生にとって絶好の訓練日和。
ファルケとタイフーンはいつもの訓練フライトの合間に笠岡ふれあい空港の「空と大地のカーニバル」のイベントに参加してきました。



解散    17:00

1番機  11:05離陸 撤収機  16:30着陸 

SF25C JA2330 ファルケ     07Flt.3h40min  
17E   JA2342 タイフーン    02Flt.1h25min  
合計                    09Flt.5h05min

11月25日
by OGC at 2018/11/25(日) 22:34:45 No.20181125223304 コメント】  削除 引用
640 x 480 x 130,670バイト
No.1

11月25日
本日の参加者
  会員      13名
  その他      0名


@本日の様子




METAR
RJBK 250100Z VRB01KT 25KM FEW035CU 08/04 Q1024 A3025
RKOB 250100Z 10003KT 030V140 9999 FEW015 10/06 Q1023
RJOT 250100Z 09003KT 9999 FEW020 13/02 Q1023
RJOA 250100Z VRB03KT 9999 FEW020 11/06 Q1023
TAF
RJOB 242309Z 2500/2606 21006KT 9999 FEW025 SCT045
     BECMG 2521/2600 11004KT
RJOT 242310Z 2500/2606 27012KT 9999 FEW025
     BECMG 2509/2511 15006KT
RJOA 242306Z 2500/2606 23005KT 9999 FEW020 SCT030
     BECMG 2600/2603 14004KT

本日の天候は風も穏やかで訓練生にとって絶好の訓練日和になりました。
ファルケはいつも通りの訓練の他、与島まで野外訓練に出かけていました。
一方、タイフーンは久しぶりに岡山空港へ行ってきました。



解散    17:00

1番機  11:35離陸 撤収機  16:45着陸 

SF25C JA2330 ファルケ     07Flt.3h10min  
17E   JA2342 タイフーン    02Flt.0h30min  
合計                    09Flt.3h40min

11月18日
by OGC at 2018/11/18(日) 23:52:10 No.20181118235108 コメント】  削除 引用
1024 x 683 x 62,455バイト
No.1

11月18日
本日の参加者
  会員      13名
  その他      0名


@本日の様子




METAR
RJBK 180000Z VRB01KT 30KM FEW020CU 11/08 Q1020 A3013
RKOB 180000Z VRB02KT 9999 FEW020 12/07 Q1019
RJOT 180000Z 10003KT 040V130 9999 FEW020 13/09 Q1019
RJOA 180000Z 11004KT 9999 FEW010 SCT020 12/07 Q1019
TAF
RJOB 172305Z 1800/1906 14004KT 9999 FEW020
          TEMPO 1815/1821 4000 -RA BR
RJOT 172309Z 1800/1906 07007KT 9999 FEW025
          BECMG 1815/1818 31005KT
          TEMPO 1818/1900 4000 -RA BR
RJOA 172305Z 1800/1906 16004KT 9999 FEW020
          BECMG 1812/1815 33008KT

本日は天候にも恵まれ、岡南飛行場祭りは大盛況で、例年通り午前、午後の2回、デモフライトを行いました。
飛行場祭り後には、短い訓練フライトを行いました。



解散    17:01

1番機  09:45離陸 撤収機  16:25着陸 

SF25C JA2330 ファルケ     05Flt.1h10min  
17E   JA2342 タイフーン    04Flt.1h00min  
合計                    09Flt.2h10min
11月11日
by OGC at 2018/11/11(日) 23:15:44 No.20181111231253 コメント】  削除 引用
1024 x 768 x 71,734バイト
No.1

11月11日
本日の参加者
  会員      13名
  その他      1名


@本日の様子




METAR
RJBK 110100Z VRB02KT 10KM SKC 13/10 Q1023 A3022
RKOB 110100Z VRB02KT 9999 FEW040 15/07 Q1023
RJOT 110100Z 07004KT 040V110 CAVOK 16/07 Q1023
RJOA 110100Z 08008KT CAVOK 15/05 Q1023
TAF
RJOB 102309Z 1100/1206 04004KT 9999 FEW025
     BECMG 1107/1109 24006KT
RJOT 102309Z 1100/1206 06008KT 9999 FEW030
     BECMG 1121/1200 27009KT
RJOA 102305Z 1100/1206 13005KT 9999 FEW030
     BECMG 1107/1109 32005KT

本日は、岡山マラソンがあり岡南飛行場の周辺が通行止めでお昼ご飯の買い出しが出来ないので、久しぶりにうどんパーティーを楽しみました。
フライトは、来週の飛行場祭りに向けたデモフライトの練習や無線検査を行い、ファルケはいつも通り訓練フライト、タイフーンは金毘羅さんや剣山、山岳地帯のナビ訓練を行い、日没ギリギリまで飛びまわっていました。



解散    17:20

1番機  11:25離陸 撤収機  16:45着陸 

SF25C JA2330 ファルケ     08Flt.3h05min  
17E   JA2342 タイフーン    05Flt.3h25min  
合計                    13Flt.6h30min
11月04日
by OGC at 2018/11/4(日) 20:15:43 No.20181104195434 コメント】  削除 引用
1024 x 768 x 72,304バイト
No.1

11月04日
本日の参加者
  会員      12名
  その他      1名


@本日の様子




METAR
RJBK 040100Z VRB02KT 30KM FEW025CU BKN/// 13/08 Q1021 A3018
RKOB 040100Z 01004KT 330V040 9999 FEW020 BKN/// 15/10 Q1021
RJOT 040100Z 33003KT 270V050 9999 FEW025 BKN180 16/10 Q1021
RJOA 040100Z 08004KT 010V130 9999 FEW020 SCT/// 15/07 Q1021
TAF
RJOB 032308Z 0400/0506 06005KT 9999 FEW030
RJOT 032305Z 0400/0506 03006KT 9999 FEW025
RJOA 032308Z 0400/0506 15004KT 9999 FEW025

本日は、風が弱く絶好の訓練日和ということもあり、グライダーに飛行機、ヘリとトラフィックの多い一日でした。
ファルケはいつも通りの訓練フライトに小豆島へのナビ、タイフーンも訓練フライトに加え与島や豊島へのナビ。
ラストは、飛行場祭りが11月18日に開催されることから、フォーメーション練習で締めくくりました。



解散    17:20

1番機  10:50離陸 撤収機  16:45着陸 

SF25C JA2330 ファルケ     08Flt.3h10min  
17E   JA2342 タイフーン    05Flt.1h45min  
合計                    13Flt.4h55min
10月28日
by OGC at 2018/10/28(日) 19:19:32 No.20181028190230 コメント】  削除 引用
1024 x 768 x 74,529バイト
No.1

10月28日
本日の参加者
  会員      11名
  その他      0名


@本日の様子




METAR
RJBK 280100Z 28007KT 30KM FEW030CU 17/07 Q1013 A2993
RKOB 280100Z 27009KT 230V300 9999 FEW025 16/07 Q1013
RJOT 280100Z 25011KT 210V280 9999 FEW030 SCT040 16/08 Q1013
RJOA 280100Z 31011KT 9999 FEW025 SCT040 15/04 Q1014
TAF
RJOB 272306Z 2800/2906 24008KT 9999 FEW025 SCT045
RJOT 272308Z 2800/2906 27013KT 9999 FEW025 SCT035
         BECMG 2810/2812 20006KT
         BECMG 2821/2900 27010KT
RJOA 272305Z 2800/2906 24007KT 9999 FEW025 SCT045
         BECMG 2818/2821 31011KT

本日は西風で昼頃には積雲が連なってクラウドストリートが形成され、一時はエンジンカットで1時間以上飛べそうなコンディションもありました。
ファルケはいつも通りの訓練フライト、タイフーンはクラウドストリートで滑空時間を稼いだり、小豆島や高梁市の備中松山城へナビに行ったり、2機とも大活躍でした。



解散    17:50

1番機  11:45離陸 撤収機  17:00着陸 

SF25C JA2330 ファルケ     07Flt.2h45min  
17E   JA2342 タイフーン    04Flt.2h45min  
合計                    11Flt.5h30min
10月21日
by OGC at 2018/10/21(日) 22:55:30 No.20181021224821 コメント】  削除 引用
1024 x 768 x 77,321バイト
No.1

10月21日
本日の参加者
  会員      15名
  その他      0名


@本日の様子




METAR
RJBK 210100Z VRB03KT SKC 17/08 Q1023 A3021
RKOB 210100Z 02005KT 280V070 9999 FEW025 17/08 Q1023
RJOT 210100Z VRB03KT 9999 FEW025 17/07 Q1023
RJOA 210100Z 11006KT 060V230 9999 FEW025 17/06 Q1023
TAF
RJOB 202307Z 2100/2206 04007KT 9999 FEW030
RJOT 202308Z 2100/2206 05007KT 9999 FEW030
RJOA 202306Z 2100/2206 15005KT 9999 FEW030

本日も穏やかな天候で訓練日和ということもあり、会員の集まりがよく賑やかな一日になりました。
ファルケはいつも通りの訓練フライト、タイフーンも社内検査、耐空検査が終了し通常訓練に移行しました。2機とも日没ギリギリまで大活躍でした。



解散    18:00

1番機  11:05離陸 撤収機  17:15着陸 

SF25C JA2330 ファルケ     09Flt.3h30min  
17E   JA2342 タイフーン    05Flt.2h05min  
合計                    14Flt.5h35min
10月14日
by OGC at 2018/10/14(日) 23:05:06 No.20181014230339 コメント】  削除 引用
1187 x 890 x 92,885バイト <この画像は大きいので別画面で表示します>
No.1

10月14日
本日の参加者
  会員      10名
  その他      1名


@本日の様子




METAR
RJBK 140100Z 18003KT 140V210 40KM FEW020CU 17/13 Q1021 A3017
RKOB 140100Z VRB02KT 9999 FEW025 19/13 Q1021
RJOT 140100Z 32004KT 260V010 9999 FEW025 SCT/// 19/14 Q1021
RJOA 12003KT 080V190 9999 FEW020 BKN/// 18/10 Q1021
TAF
RJOB 132313Z 1400/1506 01005KT 9999 FEW025 SCT045
RJOT 132305Z 1400/1506 33004KT 9999 FEW025
     BECMG 1408/1410 15006KT
RJOA 132306Z 1400/1506 15004KT 9999 FEW030 SCT045


本日は穏やかな天候で、耐空検査が完了したファルケはいつも通り訓練フライトに大活躍でした。
一方、タイフーンは社内検査が終了し、来週の耐空検査が済めば通常訓練となります。



解散    18:00

1番機  12:10離陸 撤収機  16:45着陸 

SF25C JA2330 ファルケ     07Flt.2h40min  
17E   JA2342 タイフーン    01Flt.0h20min  
合計                    08Flt.3h00min
10月07日
by OGC at 2018/10/7(日) 19:41:02 No.20181007192208 コメント】  削除 引用
1024 x 768 x 79,183バイト
No.1

10月07日
本日の参加者
  会員       8名
  その他      0名


@本日の様子




METAR
RJBK 070300Z 17003KT 080V210 25KM FEW025CU SCT035 BKN060SC 26/18 Q1013 A2993
RKOB 070200Z VRB01KT 9999 FEW020 SCT040 BKN070 24/18 Q1014
RJOT 070200Z 27005KT 220V340 9999 FEW010 SCT025 BKN060 24/20 Q1015
RJOA 070200Z 02003KT 300V110 9999 FEW015 SCT030 BKN060 22/17 Q1016
TAF
RJOB 062313Z 0700/0806 03004KT 9999 FEW020 BKN040
RJOT 062309Z 0700/0806 01005KT 9999 FEW015 BKN050
          BECMG 0718/0721 33004KT
RJOA 062306Z 0700/0806 32005KT 9999 FEW025 BKN045


本日は、前線の影響で朝方、雨模様でしたが、前線も過ぎ去り風も穏やかな練習日和になりました。
タイフーンは先週同様、耐空検査のため整備、ファルケは耐空検査整備が終わり、社内検査フライト、耐空検査を行い無事合格しました。来週からファルケは通常訓練になります。
また、当クラブから航空大学校に行っていた会員が就職の内定報告に来所してくれました。来年にはラインのコーパイとして乗務しているんでしょうね。


解散    18:00

1番機  14:50離陸 撤収機  17:05着陸 

SF25C JA2330 ファルケ     02Flt.1h05min  
17E   JA2342 タイフーン    00Flt.0h00min  
合計                    02Flt.1h05min

 IBM¨データ復旧    データ復旧×DELL

ホームページへ 全 46 件 [ 1 2 3 4 5 ]

モータースポーツ | 管理者へメール | お知らせ | 一括削除
携帯から使う方法 | ヘルプ | 利用規約 | 違反報告 | 管理パネル



- 無料レンタル掲示板 -